.
WxDataArchive / Data Records for 2011-10-05
2011-10-04 October 2011 2011-10-06

Data Records for Wednesday, 05 October 2011

Time	Temp	Chill	HIndex	Humid	Dewpt	 Wind 	HiWind	WindDir	Rain 	Barom 
-----	----	-----	------	-----	-----	------	------	-------	-----	----- 
00:00	50.4	50.4	50.4	89	47.3	0	0	---	0.00	30.245 
00:05	50.2	50.2	50.2	89	47.1	0	0	---	0.00	30.245 
00:10	50.2	50.2	50.2	89	47.1	0	0	---	0.00	30.245 
00:15	50.1	50.1	50.1	89	47.0	0	0	---	0.00	30.243 
00:20	49.9	49.9	49.9	89	46.8	0	0	---	0.00	30.243 
00:25	49.9	49.9	49.9	90	47.1	0	0	---	0.00	30.243 
00:30	49.8	49.8	49.8	90	47.0	0	0	---	0.00	30.242 
00:35	49.8	49.8	49.8	90	47.0	0	0	---	0.00	30.242 
00:40	49.6	49.6	49.6	90	46.8	0	0	---	0.00	30.242 
00:45	49.6	49.6	49.6	90	46.8	0	0	---	0.00	30.242 
00:50	49.5	49.5	49.5	90	46.7	0	0	---	0.00	30.242 
00:55	49.4	49.4	49.4	90	46.6	0	0	---	0.00	30.242 
01:00	49.4	49.4	49.4	91	46.9	0	0	---	0.00	30.243 
01:05	49.2	49.2	49.2	91	46.7	0	0	---	0.00	30.243 
01:10	49.1	49.1	49.1	91	46.6	0	0	---	0.00	30.243 
01:15	48.9	48.9	48.9	91	46.4	0	0	---	0.00	30.240 
01:20	48.9	48.9	48.9	91	46.4	0	0	---	0.00	30.240 
01:25	48.8	48.8	48.8	91	46.3	0	0	---	0.00	30.240 
01:30	48.8	48.8	48.8	91	46.3	0	0	---	0.00	30.240 
01:35	48.8	48.8	48.8	92	46.6	0	0	---	0.00	30.240 
01:40	48.6	48.6	48.6	92	46.4	0	0	---	0.00	30.240 
01:45	48.6	48.6	48.6	92	46.4	0	0	---	0.00	30.239 
01:50	48.6	48.6	48.6	92	46.4	0	0	---	0.00	30.239 
01:55	48.6	48.6	48.6	92	46.4	0	0	---	0.00	30.239 
02:00	48.8	48.8	48.8	92	46.6	0	0	---	0.00	30.240 
02:05	48.8	48.8	48.8	92	46.6	0	0	---	0.00	30.240 
02:10	48.9	48.9	48.9	92	46.7	0	0	---	0.00	30.240 
02:15	48.9	48.9	48.9	92	46.7	0	0	---	0.00	30.240 
02:20	48.9	48.9	48.9	92	46.7	0	0	---	0.00	30.240 
02:25	48.9	48.9	48.9	92	46.7	0	0	---	0.00	30.240 
02:30	48.8	48.8	48.8	92	46.6	0	0	---	0.00	30.242 
02:35	48.8	48.8	48.8	92	46.6	0	0	---	0.00	30.242 
02:40	48.6	48.6	48.6	92	46.4	0	0	---	0.00	30.242 
02:45	48.5	48.5	48.5	92	46.3	0	0	---	0.00	30.241 
02:50	48.5	48.5	48.5	92	46.3	0	0	---	0.00	30.241 
02:55	48.5	48.5	48.5	92	46.3	0	0	---	0.00	30.241 
03:00	48.5	48.5	48.5	92	46.3	0	0	---	0.00	30.240 
03:05	48.3	48.3	48.3	92	46.1	0	0	---	0.00	30.240 
03:10	48.3	48.3	48.3	92	46.1	0	0	---	0.00	30.240 
03:15	48.2	48.2	48.2	92	46.0	0	0	---	0.00	30.240 
03:20	48.0	48.0	48.0	92	45.8	0	0	---	0.00	30.240 
03:25	47.9	47.9	47.9	92	45.7	0	0	---	0.00	30.240 
03:30	47.9	47.9	47.9	92	45.7	0	0	---	0.00	30.240 
03:35	47.7	47.7	47.7	92	45.5	0	0	---	0.00	30.240 
03:40	47.6	47.6	47.6	92	45.4	0	0	---	0.00	30.240 
03:45	47.6	47.6	47.6	92	45.4	0	0	---	0.00	30.240 
03:50	47.4	47.4	47.4	92	45.2	0	0	---	0.00	30.240 
03:55	47.3	47.3	47.3	92	45.1	0	0	---	0.00	30.240 
04:00	47.1	47.1	47.1	92	44.9	0	0	---	0.00	30.242 
04:05	47.0	47.0	47.0	92	44.8	0	0	---	0.00	30.242 
04:10	47.0	47.0	47.0	92	44.8	0	0	---	0.00	30.242 
04:15	46.8	46.8	46.8	92	44.6	0	0	---	0.00	30.242 
04:20	46.7	46.7	46.7	92	44.5	0	0	---	0.00	30.242 
04:25	46.5	46.5	46.5	92	44.3	0	0	---	0.00	30.242 
04:30	46.5	46.5	46.5	92	44.3	0	0	---	0.00	30.243 
04:35	46.4	46.4	46.4	92	44.2	0	0	---	0.00	30.243 
04:40	46.2	46.2	46.2	92	44.0	0	0	---	0.00	30.243 
04:45	46.2	46.2	46.2	92	44.0	0	0	---	0.00	30.245 
04:50	46.1	46.1	46.1	92	43.9	0	0	---	0.00	30.245 
04:55	46.0	46.0	46.0	92	43.8	0	0	---	0.00	30.245 
05:00	46.0	46.0	46.0	92	43.8	0	0	---	0.00	30.246 
05:05	45.8	45.8	45.8	92	43.6	0	0	---	0.00	30.246 
05:10	45.8	45.8	45.8	92	43.6	0	0	---	0.00	30.246 
05:15	45.7	45.7	45.7	92	43.5	0	0	---	0.00	30.248 
05:20	45.5	45.5	45.5	92	43.3	0	0	---	0.00	30.248 
05:25	45.4	45.4	45.4	92	43.2	0	0	---	0.00	30.248 
05:30	45.4	45.4	45.4	93	43.5	0	0	---	0.00	30.254 
05:35	45.2	45.2	45.2	93	43.3	0	0	---	0.00	30.254 
05:40	45.2	45.2	45.2	93	43.3	0	0	---	0.00	30.254 
05:45	45.2	45.2	45.2	93	43.3	0	0	---	0.00	30.258 
05:50	45.2	45.2	45.2	93	43.3	0	0	---	0.00	30.258 
05:55	45.4	45.4	45.4	93	43.5	0	0	---	0.00	30.258 
06:00	45.4	45.4	45.4	93	43.5	0	0	---	0.00	30.260 
06:05	45.4	45.4	45.4	93	43.5	0	0	---	0.00	30.260 
06:10	45.4	45.4	45.4	93	43.5	0	0	---	0.00	30.260 
06:15	45.4	45.4	45.4	93	43.5	0	0	---	0.00	30.263 
06:20	45.2	45.2	45.2	93	43.3	0	0	---	0.00	30.263 
06:25	45.2	45.2	45.2	93	43.3	0	0	---	0.00	30.263 
06:30	45.1	45.1	45.1	93	43.2	0	0	---	0.00	30.265 
06:35	44.9	44.9	44.9	93	43.0	0	0	---	0.00	30.265 
06:40	44.9	44.9	44.9	93	43.0	0	0	---	0.00	30.265 
06:45	44.8	44.8	44.8	93	42.9	0	0	---	0.00	30.268 
06:50	44.8	44.8	44.8	93	42.9	0	0	---	0.00	30.268 
06:55	44.6	44.6	44.6	93	42.7	0	0	---	0.00	30.268 
07:00	44.6	44.6	44.6	93	42.7	0	0	---	0.00	30.272 
07:05	44.6	44.6	44.6	93	42.7	0	0	---	0.00	30.272 
07:10	44.5	44.5	44.5	93	42.6	0	0	---	0.00	30.272 
07:15	44.5	44.5	44.5	93	42.6	0	0	---	0.00	30.278 
07:20	44.3	44.3	44.3	94	42.7	0	0	---	0.00	30.278 
07:25	44.2	44.2	44.2	94	42.6	0	0	---	0.00	30.278 
07:30	44.2	44.2	44.2	94	42.6	0	0	---	0.00	30.283 
07:35	44.2	44.2	44.2	94	42.6	0	0	---	0.00	30.283 
07:40	44.2	44.2	44.2	94	42.6	0	0	---	0.00	30.283 
07:45	44.1	44.1	44.1	94	42.5	0	0	---	0.00	30.284 
07:50	44.1	44.1	44.1	94	42.5	0	0	---	0.00	30.284 
07:55	44.1	44.1	44.1	94	42.5	0	0	---	0.00	30.284 
08:00	44.1	44.1	44.1	94	42.5	0	0	---	0.00	30.284 
08:05	44.2	44.2	44.2	94	42.6	0	0	---	0.00	30.284 
08:10	44.2	44.2	44.2	94	42.6	0	0	---	0.00	30.284 
08:15	44.3	44.3	44.3	94	42.7	0	0	---	0.00	30.289 
08:20	44.5	44.5	44.5	94	42.9	0	0	---	0.00	30.289 
08:25	44.6	44.6	44.6	94	43.0	0	0	---	0.00	30.289 
08:30	44.9	44.9	44.9	95	43.6	0	0	---	0.00	30.289 
08:35	45.4	45.4	45.4	95	44.1	0	0	---	0.00	30.289 
08:40	45.7	45.7	45.7	95	44.4	0	0	---	0.00	30.289 
08:45	46.0	46.0	46.0	95	44.6	0	0	---	0.00	30.293 
08:50	46.4	46.4	46.4	95	45.0	0	0	---	0.00	30.293 
08:55	46.8	46.8	46.8	95	45.4	0	0	---	0.00	30.293 
09:00	47.3	47.3	47.3	95	45.9	0	0	---	0.00	30.296 
09:05	47.7	47.7	47.7	95	46.3	0	0	---	0.00	30.296 
09:10	48.0	48.0	48.0	95	46.6	0	0	---	0.00	30.296 
09:15	48.3	48.3	48.3	95	46.9	0	0	---	0.00	30.299 
09:20	48.6	48.6	48.6	95	47.2	0	0	---	0.00	30.299 
09:25	48.9	48.9	48.9	95	47.5	0	0	---	0.00	30.299 
09:30	49.5	49.5	49.5	96	48.4	0	0	---	0.00	30.299 
09:35	50.1	50.1	50.1	96	49.0	0	0	---	0.00	30.299 
09:40	51.0	51.0	51.0	96	49.9	0	0	---	0.00	30.299 
09:45	51.9	51.9	51.9	96	50.8	0	0	---	0.00	30.298 
09:50	52.9	52.9	52.9	96	51.8	0	0	---	0.00	30.298 
09:55	54.1	54.1	54.1	96	53.0	0	2	90	0.00	30.298 
10:00	56.0	56.0	56.0	93	54.0	0	2	90	0.00	30.296 
10:05	57.8	57.8	57.8	82	52.3	0	1	90	0.00	30.296 
10:10	58.7	58.7	58.7	74	50.4	0	1	90	0.00	30.296 
10:15	59.5	59.5	59.5	69	49.3	1	2	90	0.00	30.296 
10:20	60.5	60.5	60.5	66	49.1	0	3	90	0.00	30.296 
10:25	61.5	61.5	61.5	62	48.4	0	2	68	0.00	30.296 
10:30	62.4	62.4	62.4	62	49.2	0	2	45	0.00	30.292 
10:35	63.2	63.2	63.2	58	48.2	0	2	45	0.00	30.292 
10:40	63.9	63.9	63.9	56	47.9	0	2	45	0.00	30.292 
10:45	64.5	64.5	64.5	56	48.4	0	2	45	0.00	30.291 
10:50	65.0	65.0	65.0	55	48.4	1	2	180	0.00	30.291 
10:55	65.5	65.5	65.5	54	48.4	0	1	180	0.00	30.291 
11:00	66.1	66.1	66.1	56	49.9	0	1	180	0.00	30.291 
11:05	66.8	66.8	66.8	54	49.6	0	2	180	0.00	30.291 
11:10	67.4	67.4	67.4	54	50.2	0	2	315	0.00	30.291 
11:15	67.9	67.9	67.9	50	48.6	1	2	315	0.00	30.290 
11:20	68.3	68.3	68.3	49	48.4	1	3	315	0.00	30.290 
11:25	68.8	68.8	68.8	51	49.9	1	2	315	0.00	30.290 
11:30	69.4	69.4	69.4	50	49.9	0	2	270	0.00	30.289 
11:35	69.8	69.8	69.8	47	48.6	1	2	270	0.00	30.289 
11:40	70.3	70.3	70.3	45	47.9	1	2	270	0.00	30.289 
11:45	70.8	70.8	70.8	46	49.0	0	2	270	0.00	30.287 
11:50	71.1	71.1	71.1	43	47.5	0	1	270	0.00	30.287 
11:55	71.5	71.5	71.5	44	48.4	0	2	248	0.00	30.287 
12:00	72.0	72.0	72.0	46	50.1	0	1	292	0.00	30.285 
12:05	72.5	72.5	72.5	43	48.7	1	2	292	0.00	30.285 
12:10	72.8	72.8	72.8	43	49.0	0	1	292	0.00	30.285 
12:15	73.2	73.2	73.2	44	50.0	0	3	292	0.00	30.284 
12:20	73.3	73.3	73.3	43	49.4	0	2	270	0.00	30.284 
12:25	73.7	73.7	73.7	41	48.5	1	2	270	0.00	30.284 
12:30	74.0	74.0	74.0	40	48.1	0	2	270	0.00	30.281 
12:35	74.4	74.4	74.4	41	49.1	1	3	270	0.00	30.281 
12:40	74.2	74.2	74.2	36	45.5	1	4	270	0.00	30.281 
12:45	74.4	74.4	74.4	39	47.8	1	3	338	0.00	30.276 
12:50	74.7	74.7	74.7	39	48.1	1	2	338	0.00	30.276 
12:55	74.7	74.7	74.7	37	46.7	0	2	338	0.00	30.276 
13:00	74.9	74.9	74.9	36	46.1	0	2	338	0.00	30.271 
13:05	75.1	75.1	77.3	35	45.6	1	3	315	0.00	30.271 
13:10	75.4	75.4	77.4	35	45.8	0	1	315	0.00	30.271 
13:15	75.6	75.6	77.4	34	45.2	1	2	315	0.00	30.268 
13:20	75.6	75.6	77.4	34	45.2	1	3	315	0.00	30.268 
13:25	75.8	75.8	77.5	34	45.4	0	1	315	0.00	30.268 
13:30	76.0	76.0	77.6	35	46.4	0	2	315	0.00	30.264 
13:35	76.0	76.0	77.5	33	44.8	1	3	315	0.00	30.264 
13:40	76.0	76.0	77.3	31	43.2	0	3	315	0.00	30.264 
13:45	75.8	75.8	77.4	33	44.6	2	4	90	0.00	30.254 
13:50	75.8	75.8	77.5	35	46.2	0	1	90	0.00	30.254 
13:55	76.1	76.1	77.7	36	47.2	0	1	90	0.00	30.254 
14:00	76.5	76.5	77.7	33	45.2	0	1	90	0.00	30.240 
14:05	76.5	76.5	77.7	34	46.0	0	2	90	0.00	30.240 
14:10	76.8	76.8	77.8	33	45.5	0	1	90	0.00	30.240 
14:15	77.0	77.0	77.7	30	43.2	0	4	90	0.00	30.234 
14:20	77.2	77.2	77.9	32	45.0	0	1	90	0.00	30.234 
14:25	77.4	77.4	78.0	32	45.2	0	2	90	0.00	30.234 
14:30	77.4	77.4	78.1	34	46.8	0	1	90	0.00	30.235 
14:35	77.4	77.4	77.9	31	44.4	0	1	90	0.00	30.235 
14:40	77.2	77.2	77.9	33	45.8	0	2	90	0.00	30.235 
14:45	77.0	77.0	77.7	31	44.0	0	2	90	0.00	30.231 
14:50	77.2	77.2	77.9	32	45.0	0	2	90	0.00	30.231 
14:55	77.4	77.4	78.1	35	47.6	0	0	---	0.00	30.231 
15:00	77.4	77.4	78.0	32	45.2	0	2	90	0.00	30.229 
15:05	77.4	77.4	78.1	34	46.8	0	0	---	0.00	30.229 
15:10	77.6	77.6	78.1	33	46.2	0	0	---	0.00	30.229 
15:15	77.7	77.7	78.0	31	44.6	0	2	90	0.00	30.225 
15:20	77.7	77.7	78.1	32	45.5	0	1	90	0.00	30.225 
15:25	77.7	77.7	78.0	31	44.6	0	2	90	0.00	30.225 
15:30	77.7	77.7	77.9	29	42.9	0	1	90	0.00	30.223 
15:35	77.6	77.6	77.9	29	42.8	0	1	90	0.00	30.223 
15:40	77.6	77.6	77.7	27	41.0	0	2	90	0.00	30.223 
15:45	77.7	77.7	78.0	31	44.6	0	2	90	0.00	30.219 
15:50	77.7	77.7	77.8	27	41.0	0	2	90	0.00	30.219 
15:55	77.9	77.9	78.1	30	43.9	0	2	90	0.00	30.219 
16:00	77.9	77.9	78.1	31	44.8	0	2	90	0.00	30.216 
16:05	77.7	77.7	78.0	31	44.6	0	1	90	0.00	30.216 
16:10	77.7	77.7	78.0	30	43.8	0	1	90	0.00	30.216 
16:15	77.6	77.6	77.8	28	41.9	0	1	90	0.00	30.214 
16:20	77.6	77.6	77.8	28	41.9	0	1	90	0.00	30.214 
16:25	77.4	77.4	77.8	30	43.5	0	0	---	0.00	30.214 
16:30	77.4	77.4	77.8	29	42.6	0	1	90	0.00	30.214 
16:35	77.4	77.4	77.9	31	44.4	0	1	90	0.00	30.214 
16:40	77.2	77.2	77.7	29	42.5	0	2	90	0.00	30.214 
16:45	77.2	77.2	77.6	28	41.6	0	1	90	0.00	30.211 
16:50	77.0	77.0	77.7	31	44.0	0	1	90	0.00	30.211 
16:55	77.0	77.0	77.8	32	44.9	0	1	90	0.00	30.211 
17:00	76.8	76.8	77.7	31	43.9	0	1	90	0.00	30.211 
17:05	76.8	76.8	77.7	31	43.9	0	1	90	0.00	30.211 
17:10	76.8	76.8	77.6	30	43.0	0	2	90	0.00	30.211 
17:15	76.8	76.8	77.7	31	43.9	0	1	90	0.00	30.210 
17:20	76.8	76.8	77.7	31	43.9	0	1	90	0.00	30.210 
17:25	76.7	76.7	77.7	33	45.4	0	1	90	0.00	30.210 
17:30	76.5	76.5	77.5	30	42.7	0	1	90	0.00	30.209 
17:35	76.5	76.5	77.7	33	45.2	0	1	90	0.00	30.209 
17:40	76.3	76.3	77.6	33	45.1	0	0	---	0.00	30.209 
17:45	76.0	76.0	77.4	32	44.0	0	0	---	0.00	30.210 
17:50	75.8	75.8	77.5	34	45.4	0	0	---	0.00	30.210 
17:55	75.8	75.8	77.6	36	46.9	0	0	---	0.00	30.210 
18:00	75.6	75.6	77.4	34	45.2	0	0	---	0.00	30.210 
18:05	75.4	75.4	77.3	34	45.1	0	0	---	0.00	30.210 
18:10	75.3	75.3	77.4	35	45.7	0	0	---	0.00	30.210 
18:15	75.1	75.1	77.3	36	46.3	0	0	---	0.00	30.210 
18:20	74.9	74.9	74.9	38	47.6	0	0	---	0.00	30.210 
18:25	74.6	74.6	74.6	39	48.0	0	0	---	0.00	30.210 
18:30	74.2	74.2	74.2	40	48.3	0	0	---	0.00	30.211 
18:35	73.9	73.9	73.9	41	48.7	0	0	---	0.00	30.211 
18:40	73.3	73.3	73.3	43	49.4	0	0	---	0.00	30.211 
18:45	72.8	72.8	72.8	45	50.2	0	0	---	0.00	30.211 
18:50	72.3	72.3	72.3	47	50.9	0	0	---	0.00	30.211 
18:55	71.6	71.6	71.6	47	50.3	0	0	---	0.00	30.211 
19:00	70.9	70.9	70.9	48	50.2	0	0	---	0.00	30.218 
19:05	70.3	70.3	70.3	49	50.2	0	0	---	0.00	30.218 
19:10	69.6	69.6	69.6	51	50.7	0	0	---	0.00	30.218 
19:15	69.1	69.1	69.1	52	50.7	0	0	---	0.00	30.225 
19:20	68.6	68.6	68.6	53	50.8	0	0	---	0.00	30.225 
19:25	67.9	67.9	67.9	52	49.6	0	0	---	0.00	30.225 
19:30	67.4	67.4	67.4	53	49.7	0	0	---	0.00	30.226 
19:35	66.8	66.8	66.8	54	49.6	0	0	---	0.00	30.226 
19:40	66.3	66.3	66.3	54	49.1	0	0	---	0.00	30.226 
19:45	65.8	65.8	65.8	55	49.2	0	0	---	0.00	30.224 
19:50	65.2	65.2	65.2	56	49.1	0	0	---	0.00	30.224 
19:55	64.7	64.7	64.7	58	49.6	0	0	---	0.00	30.224 
20:00	64.2	64.2	64.2	59	49.6	0	0	---	0.00	30.228 
20:05	63.7	63.7	63.7	61	50.0	0	0	---	0.00	30.228 
20:10	63.2	63.2	63.2	62	50.0	0	0	---	0.00	30.228 
20:15	62.9	62.9	62.9	63	50.1	0	0	---	0.00	30.230 
20:20	62.6	62.6	62.6	65	50.7	0	0	---	0.00	30.230 
20:25	62.1	62.1	62.1	66	50.6	0	0	---	0.00	30.230 
20:30	61.8	61.8	61.8	68	51.1	0	0	---	0.00	30.232 
20:35	61.3	61.3	61.3	69	51.0	0	0	---	0.00	30.232 
20:40	60.9	60.9	60.9	69	50.7	0	0	---	0.00	30.232 
20:45	60.5	60.5	60.5	71	51.0	0	0	---	0.00	30.235 
20:50	60.4	60.4	60.4	72	51.3	0	0	---	0.00	30.235 
20:55	60.1	60.1	60.1	73	51.4	0	0	---	0.00	30.235 
21:00	59.9	59.9	59.9	73	51.2	0	0	---	0.00	30.239 
21:05	59.6	59.6	59.6	74	51.3	0	0	---	0.00	30.239 
21:10	59.3	59.3	59.3	75	51.4	0	0	---	0.00	30.239 
21:15	59.2	59.2	59.2	76	51.6	0	0	---	0.00	30.234 
21:20	58.9	58.9	58.9	76	51.3	0	0	---	0.00	30.234 
21:25	58.6	58.6	58.6	76	51.1	0	0	---	0.00	30.234 
21:30	58.3	58.3	58.3	77	51.1	0	0	---	0.00	30.241 
21:35	58.0	58.0	58.0	77	50.8	0	0	---	0.00	30.241 
21:40	57.6	57.6	57.6	78	50.8	0	0	---	0.00	30.241 
21:45	57.5	57.5	57.5	78	50.7	0	0	---	0.00	30.242 
21:50	57.2	57.2	57.2	80	51.1	0	0	---	0.00	30.242 
21:55	57.0	57.0	57.0	80	50.9	0	0	---	0.00	30.242 
22:00	56.9	56.9	56.9	81	51.1	0	0	---	0.00	30.245 
22:05	56.7	56.7	56.7	81	50.9	0	0	---	0.00	30.245 
22:10	56.6	56.6	56.6	81	50.8	0	0	---	0.00	30.245 
22:15	56.5	56.5	56.5	81	50.7	0	0	---	0.00	30.237 
22:20	56.3	56.3	56.3	82	50.9	0	0	---	0.00	30.237 
22:25	56.2	56.2	56.2	82	50.8	0	0	---	0.00	30.237 
22:30	56.0	56.0	56.0	83	50.9	0	0	---	0.00	30.233 
22:35	55.7	55.7	55.7	83	50.6	0	0	---	0.00	30.233 
22:40	55.6	55.6	55.6	83	50.5	0	0	---	0.00	30.233 
22:45	55.4	55.4	55.4	84	50.6	0	0	---	0.00	30.238 
22:50	55.1	55.1	55.1	84	50.4	0	0	---	0.00	30.238 
22:55	55.0	55.0	55.0	84	50.3	0	0	---	0.00	30.238 
23:00	54.8	54.8	54.8	84	50.1	0	0	---	0.00	30.239 
23:05	54.7	54.7	54.7	85	50.3	0	0	---	0.00	30.239 
23:10	54.5	54.5	54.5	85	50.1	0	0	---	0.00	30.239 
23:15	54.4	54.4	54.4	86	50.3	0	0	---	0.00	30.234 
23:20	54.4	54.4	54.4	86	50.3	0	0	---	0.00	30.234 
23:25	54.2	54.2	54.2	87	50.4	0	0	---	0.00	30.234 
23:30	54.1	54.1	54.1	87	50.3	0	0	---	0.00	30.235 
23:35	53.9	53.9	53.9	88	50.4	0	2	90	0.00	30.235 
23:40	53.9	53.9	53.9	88	50.4	0	0	---	0.00	30.235 
23:45	53.9	53.9	53.9	88	50.4	0	0	---	0.00	30.236 
23:50	53.9	53.9	53.9	88	50.4	0	0	---	0.00	30.236 
23:55	53.9	53.9	53.9	88	50.4	0	0	---	0.00	30.236 

CoCoRaHS
IN-AL-39
A2 Web Hosting
Creative Commons License
GoDaddy
search engine by freefind advanced

loaded 2018-11-20 06:44:13 • last modified 2010-11-18 10:43:29
Privacy PolicyDisclaimer
• wx.awcolley.com is powered by PmWiki v.2002016 •
• all content (unless otherwise noted) © 2018 A W Colley